Waco Regional Airport
KACT : now visible

Airfield :











YOU CAN JOIN US ON...

 
LOGIN :

Register | Disclaimer

   EN    FR    IT 

 









Legend :    VFR   Marginal VFR   IFR   Intensive IFR   Very Intensive IFR
Visi :
Ceiling :
>= 8 km
>= 3000ft
5 to 8 km
1000 to 3000 ft
1500m to 5 km
500 to 1000 ft
800 to 1500m
200 to 500 ft
< 800m
< 200 ft
Symbols :   Thunderstorms  Fog  Heavy snow  Heavy precipitations  Wind > 20 kt






- Airport Elevation : 516 ft
- IATA code : ACT


KACT - Waco Regional

CURRENT METAR :
  • 280551Z AUTO 13008KT 10SM CLR 23/14 A2993 RMK AO2 SLP126 T02280144 10328 20217 403440150 50001

EXPIRED METARs :
  • 280451Z AUTO 12005KT 10SM CLR 23/14 A2993 RMK AO2 SLP128 T02280144
  • 280351Z 11006KT 10SM CLR 23/14 A2994 RMK AO2 SLP130 T02330144

TAF KACT
Valid from the 28 at 06:00 until the 29 at 06:00 UTC


280538Z 2806/2906 13007KT P6SM SKC
FM281600 17015G25KT P6SM SKC
KZFW FIR / North America



MET'MAP, your aeronautical weather chart ! - Copyright ORBIFLY December 2007 - Disclaimer

ORBIFLY MET'MAP TEAM :

Programming & Development : Alexandra Zaïnal
Original concept : Baudouin d'Aumeries
Technical & hardware support : Manuel Goepfert
Assistance : Marc-Olivier Méhu

Contact : metmap@orbifly.com




SOURCES & CREDITS :

   NOAA       Earth
Advisory